sensor_id;sensor_type;location;lat;lon;timestamp;noise_LAeq;noise_LA_min;noise_LA_max;noise_LA01;noise_LA95
69611;Laerm;56817;52.302;4.844;2023-08-24T00:00:07;36.85;32.69;46.86;;
69611;Laerm;56817;52.302;4.844;2023-08-24T00:00:17;36.45;34.41;38.56;;
69611;Laerm;56817;52.302;4.844;2023-08-24T00:00:28;38.08;35.26;42.64;;
69611;Laerm;56817;52.302;4.844;2023-08-24T00:00:39;40.84;36.59;45.49;;
69611;Laerm;56817;52.302;4.844;2023-08-24T00:00:49;39.41;35.45;41.96;;
69611;Laerm;56817;52.302;4.844;2023-08-24T00:00:59;37.69;34.71;39.93;;
69611;Laerm;56817;52.302;4.844;2023-08-24T00:01:13;35.87;34.11;37.82;;
69611;Laerm;56817;52.302;4.844;2023-08-24T00:01:23;36.00;33.78;39.24;;
69611;Laerm;56817;52.302;4.844;2023-08-24T00:01:33;37.49;33.86;41.79;;
69611;Laerm;56817;52.302;4.844;2023-08-24T00:01:43;39.35;36.67;42.72;;
69611;Laerm;56817;52.302;4.844;2023-08-24T00:01:54;35.26;32.18;39.28;;
69611;Laerm;56817;52.302;4.844;2023-08-24T00:02:04;34.04;31.72;38.60;;
69611;Laerm;56817;52.302;4.844;2023-08-24T00:02:14;36.35;32.07;42.01;;
69611;Laerm;56817;52.302;4.844;2023-08-24T00:02:25;36.78;33.74;39.07;;
69611;Laerm;56817;52.302;4.844;2023-08-24T00:02:35;35.44;33.55;37.81;;
69611;Laerm;56817;52.302;4.844;2023-08-24T00:02:45;36.12;33.68;40.22;;
69611;Laerm;56817;52.302;4.844;2023-08-24T00:02:56;37.28;33.85;41.85;;
69611;Laerm;56817;52.302;4.844;2023-08-24T00:03:08;39.79;35.12;46.28;;
69611;Laerm;56817;52.302;4.844;2023-08-24T00:03:18;38.25;34.50;42.89;;
69611;Laerm;56817;52.302;4.844;2023-08-24T00:03:31;39.16;35.10;44.02;;
69611;Laerm;56817;52.302;4.844;2023-08-24T00:03:45;40.70;35.65;45.74;;
69611;Laerm;56817;52.302;4.844;2023-08-24T00:03:56;39.19;35.72;42.98;;
69611;Laerm;56817;52.302;4.844;2023-08-24T00:04:06;40.69;37.37;45.26;;
69611;Laerm;56817;52.302;4.844;2023-08-24T00:04:17;40.08;36.57;46.27;;
69611;Laerm;56817;52.302;4.844;2023-08-24T00:04:28;39.74;34.07;45.61;;
69611;Laerm;56817;52.302;4.844;2023-08-24T00:04:38;37.62;35.32;40.62;;
69611;Laerm;56817;52.302;4.844;2023-08-24T00:04:48;36.67;33.99;39.72;;
69611;Laerm;56817;52.302;4.844;2023-08-24T00:04:59;34.95;33.28;37.40;;
69611;Laerm;56817;52.302;4.844;2023-08-24T00:05:10;36.62;33.71;39.94;;
69611;Laerm;56817;52.302;4.844;2023-08-24T00:05:21;35.34;33.08;38.72;;
69611;Laerm;56817;52.302;4.844;2023-08-24T00:05:34;36.00;33.39;40.11;;
69611;Laerm;56817;52.302;4.844;2023-08-24T00:05:47;36.39;33.68;40.34;;
69611;Laerm;56817;52.302;4.844;2023-08-24T00:05:57;38.04;33.07;45.63;;
69611;Laerm;56817;52.302;4.844;2023-08-24T00:06:07;39.35;34.66;43.21;;
69611;Laerm;56817;52.302;4.844;2023-08-24T00:06:18;37.60;33.17;41.29;;
69611;Laerm;56817;52.302;4.844;2023-08-24T00:06:28;36.18;33.72;40.54;;
69611;Laerm;56817;52.302;4.844;2023-08-24T00:06:38;35.62;33.70;38.24;;
69611;Laerm;56817;52.302;4.844;2023-08-24T00:06:49;35.64;32.96;38.15;;
69611;Laerm;56817;52.302;4.844;2023-08-24T00:06:59;36.74;34.12;43.80;;
69611;Laerm;56817;52.302;4.844;2023-08-24T00:07:09;37.16;34.62;40.90;;
69611;Laerm;56817;52.302;4.844;2023-08-24T00:07:19;37.19;33.39;41.68;;
69611;Laerm;56817;52.302;4.844;2023-08-24T00:07:30;38.24;35.61;43.14;;
69611;Laerm;56817;52.302;4.844;2023-08-24T00:07:40;37.06;33.80;40.24;;
69611;Laerm;56817;52.302;4.844;2023-08-24T00:07:51;34.76;32.66;37.30;;
69611;Laerm;56817;52.302;4.844;2023-08-24T00:08:04;35.92;33.55;40.41;;
69611;Laerm;56817;52.302;4.844;2023-08-24T00:08:14;39.49;33.04;44.49;;
69611;Laerm;56817;52.302;4.844;2023-08-24T00:08:24;37.24;33.14;43.08;;
69611;Laerm;56817;52.302;4.844;2023-08-24T00:08:34;35.99;33.06;40.80;;
69611;Laerm;56817;52.302;4.844;2023-08-24T00:08:45;38.87;35.58;42.11;;
69611;Laerm;56817;52.302;4.844;2023-08-24T00:08:55;38.90;34.89;43.00;;
69611;Laerm;56817;52.302;4.844;2023-08-24T00:09:05;41.06;36.52;45.11;;
69611;Laerm;56817;52.302;4.844;2023-08-24T00:09:16;38.29;35.68;40.75;;
69611;Laerm;56817;52.302;4.844;2023-08-24T00:09:26;36.99;34.63;40.10;;
69611;Laerm;56817;52.302;4.844;2023-08-24T00:09:36;37.10;33.77;40.99;;
69611;Laerm;56817;52.302;4.844;2023-08-24T00:09:47;37.57;34.58;40.80;;
69611;Laerm;56817;52.302;4.844;2023-08-24T00:09:57;36.49;34.19;38.48;;
69611;Laerm;56817;52.302;4.844;2023-08-24T00:10:08;36.67;34.86;40.84;;
69611;Laerm;56817;52.302;4.844;2023-08-24T00:10:18;36.53;33.44;41.31;;
69611;Laerm;56817;52.302;4.844;2023-08-24T00:10:28;37.61;33.98;44.18;;
69611;Laerm;56817;52.302;4.844;2023-08-24T00:10:39;38.70;33.53;46.52;;
69611;Laerm;56817;52.302;4.844;2023-08-24T00:10:49;38.51;34.49;42.97;;
69611;Laerm;56817;52.302;4.844;2023-08-24T00:11:00;39.23;35.04;44.32;;
69611;Laerm;56817;52.302;4.844;2023-08-24T00:11:10;37.72;35.26;40.29;;
69611;Laerm;56817;52.302;4.844;2023-08-24T00:11:24;36.50;33.87;39.53;;
69611;Laerm;56817;52.302;4.844;2023-08-24T00:11:35;35.20;33.10;37.60;;
69611;Laerm;56817;52.302;4.844;2023-08-24T00:11:45;35.99;33.60;40.54;;
69611;Laerm;56817;52.302;4.844;2023-08-24T00:11:55;36.07;33.48;38.40;;
69611;Laerm;56817;52.302;4.844;2023-08-24T00:12:06;39.31;35.04;41.96;;
69611;Laerm;56817;52.302;4.844;2023-08-24T00:12:16;39.99;37.12;43.37;;
69611;Laerm;56817;52.302;4.844;2023-08-24T00:12:26;38.36;35.53;41.25;;
69611;Laerm;56817;52.302;4.844;2023-08-24T00:12:37;38.67;34.84;42.69;;
69611;Laerm;56817;52.302;4.844;2023-08-24T00:12:47;36.07;33.59;37.91;;
69611;Laerm;56817;52.302;4.844;2023-08-24T00:12:57;37.66;34.37;40.24;;
69611;Laerm;56817;52.302;4.844;2023-08-24T00:13:08;36.43;33.94;40.27;;
69611;Laerm;56817;52.302;4.844;2023-08-24T00:13:18;37.34;35.33;40.02;;
69611;Laerm;56817;52.302;4.844;2023-08-24T00:13:28;37.66;35.14;41.13;;
69611;Laerm;56817;52.302;4.844;2023-08-24T00:13:39;40.77;35.77;45.73;;
69611;Laerm;56817;52.302;4.844;2023-08-24T00:13:49;36.41;34.23;38.72;;
69611;Laerm;56817;52.302;4.844;2023-08-24T00:14:01;39.99;34.37;50.28;;
69611;Laerm;56817;52.302;4.844;2023-08-24T00:14:12;46.14;39.87;52.13;;
69611;Laerm;56817;52.302;4.844;2023-08-24T00:14:23;44.72;38.50;50.92;;
69611;Laerm;56817;52.302;4.844;2023-08-24T00:14:33;41.03;37.14;46.59;;
69611;Laerm;56817;52.302;4.844;2023-08-24T00:14:43;38.56;35.48;42.10;;
69611;Laerm;56817;52.302;4.844;2023-08-24T00:14:53;37.68;35.20;40.54;;
69611;Laerm;56817;52.302;4.844;2023-08-24T00:15:04;36.82;34.45;39.93;;
69611;Laerm;56817;52.302;4.844;2023-08-24T00:15:14;37.05;34.69;40.96;;
69611;Laerm;56817;52.302;4.844;2023-08-24T00:15:24;37.39;34.80;43.24;;
69611;Laerm;56817;52.302;4.844;2023-08-24T00:15:35;36.34;33.54;40.77;;
69611;Laerm;56817;52.302;4.844;2023-08-24T00:15:45;40.26;35.67;44.99;;
69611;Laerm;56817;52.302;4.844;2023-08-24T00:15:56;41.57;36.51;46.75;;
69611;Laerm;56817;52.302;4.844;2023-08-24T00:16:06;38.29;34.35;42.75;;
69611;Laerm;56817;52.302;4.844;2023-08-24T00:16:17;38.47;35.58;42.48;;
69611;Laerm;56817;52.302;4.844;2023-08-24T00:16:27;37.58;34.37;41.41;;
69611;Laerm;56817;52.302;4.844;2023-08-24T00:16:38;34.78;32.77;37.45;;
69611;Laerm;56817;52.302;4.844;2023-08-24T00:16:48;35.31;33.22;37.66;;
69611;Laerm;56817;52.302;4.844;2023-08-24T00:16:59;38.19;34.62;43.89;;
69611;Laerm;56817;52.302;4.844;2023-08-24T00:17:09;36.39;33.57;38.79;;
69611;Laerm;56817;52.302;4.844;2023-08-24T00:17:19;36.01;33.68;39.31;;
69611;Laerm;56817;52.302;4.844;2023-08-24T00:17:30;36.26;33.19;40.78;;
69611;Laerm;56817;52.302;4.844;2023-08-24T00:17:40;36.24;33.31;39.27;;
69611;Laerm;56817;52.302;4.844;2023-08-24T00:17:50;37.12;34.47;39.36;;
69611;Laerm;56817;52.302;4.844;2023-08-24T00:18:01;37.79;34.55;40.39;;
69611;Laerm;56817;52.302;4.844;2023-08-24T00:18:12;37.35;34.13;40.32;;
69611;Laerm;56817;52.302;4.844;2023-08-24T00:18:22;34.83;33.17;36.67;;
69611;Laerm;56817;52.302;4.844;2023-08-24T00:18:32;35.92;33.41;39.46;;
69611;Laerm;56817;52.302;4.844;2023-08-24T00:18:43;35.75;33.95;37.65;;
69611;Laerm;56817;52.302;4.844;2023-08-24T00:18:53;37.30;34.24;39.85;;
69611;Laerm;56817;52.302;4.844;2023-08-24T00:19:03;37.61;34.84;40.05;;
69611;Laerm;56817;52.302;4.844;2023-08-24T00:19:14;35.97;33.52;41.00;;
69611;Laerm;56817;52.302;4.844;2023-08-24T00:19:24;35.01;33.34;37.12;;
69611;Laerm;56817;52.302;4.844;2023-08-24T00:19:34;36.47;33.56;40.90;;
69611;Laerm;56817;52.302;4.844;2023-08-24T00:19:44;41.00;35.65;46.65;;
69611;Laerm;56817;52.302;4.844;2023-08-24T00:19:56;43.79;39.27;47.67;;
69611;Laerm;56817;52.302;4.844;2023-08-24T00:20:06;42.67;39.21;45.87;;
69611;Laerm;56817;52.302;4.844;2023-08-24T00:20:20;41.71;37.04;47.12;;
69611;Laerm;56817;52.302;4.844;2023-08-24T00:20:31;38.37;34.51;44.27;;
69611;Laerm;56817;52.302;4.844;2023-08-24T00:20:42;36.79;33.52;42.45;;
69611;Laerm;56817;52.302;4.844;2023-08-24T00:20:52;38.70;33.47;44.35;;
69611;Laerm;56817;52.302;4.844;2023-08-24T00:21:03;36.98;34.72;45.29;;
69611;Laerm;56817;52.302;4.844;2023-08-24T00:21:13;35.17;32.35;38.86;;
69611;Laerm;56817;52.302;4.844;2023-08-24T00:21:27;33.98;31.84;38.29;;
69611;Laerm;56817;52.302;4.844;2023-08-24T00:21:38;36.53;31.30;42.14;;
69611;Laerm;56817;52.302;4.844;2023-08-24T00:21:48;39.07;35.20;42.06;;
69611;Laerm;56817;52.302;4.844;2023-08-24T00:21:59;38.30;35.50;42.87;;
69611;Laerm;56817;52.302;4.844;2023-08-24T00:22:09;37.51;34.00;43.43;;
69611;Laerm;56817;52.302;4.844;2023-08-24T00:22:19;35.78;33.99;38.66;;
69611;Laerm;56817;52.302;4.844;2023-08-24T00:22:30;38.23;34.29;42.19;;
69611;Laerm;56817;52.302;4.844;2023-08-24T00:22:40;38.02;35.10;43.07;;
69611;Laerm;56817;52.302;4.844;2023-08-24T00:22:50;37.29;32.84;47.91;;
69611;Laerm;56817;52.302;4.844;2023-08-24T00:23:01;35.15;32.60;41.62;;
69611;Laerm;56817;52.302;4.844;2023-08-24T00:23:11;39.87;34.16;47.93;;
69611;Laerm;56817;52.302;4.844;2023-08-24T00:23:21;37.56;34.57;42.01;;
69611;Laerm;56817;52.302;4.844;2023-08-24T00:23:31;38.05;34.20;42.86;;
69611;Laerm;56817;52.302;4.844;2023-08-24T00:23:42;35.24;32.74;38.97;;
69611;Laerm;56817;52.302;4.844;2023-08-24T00:23:53;36.09;33.01;38.40;;
69611;Laerm;56817;52.302;4.844;2023-08-24T00:24:03;36.30;34.88;38.09;;
69611;Laerm;56817;52.302;4.844;2023-08-24T00:24:14;37.96;34.89;44.24;;
69611;Laerm;56817;52.302;4.844;2023-08-24T00:24:24;37.68;34.51;41.74;;
69611;Laerm;56817;52.302;4.844;2023-08-24T00:24:34;39.29;35.49;44.88;;
69611;Laerm;56817;52.302;4.844;2023-08-24T00:24:45;35.32;32.77;38.56;;
69611;Laerm;56817;52.302;4.844;2023-08-24T00:24:55;34.29;32.65;36.26;;
69611;Laerm;56817;52.302;4.844;2023-08-24T00:25:08;35.31;32.74;39.55;;
69611;Laerm;56817;52.302;4.844;2023-08-24T00:25:18;34.98;32.93;39.17;;
69611;Laerm;56817;52.302;4.844;2023-08-24T00:25:31;37.54;33.52;47.03;;
69611;Laerm;56817;52.302;4.844;2023-08-24T00:25:42;39.34;34.73;43.09;;
69611;Laerm;56817;52.302;4.844;2023-08-24T00:25:52;37.50;34.98;41.59;;
69611;Laerm;56817;52.302;4.844;2023-08-24T00:26:02;36.90;35.10;40.74;;
69611;Laerm;56817;52.302;4.844;2023-08-24T00:26:12;35.84;32.94;39.05;;
69611;Laerm;56817;52.302;4.844;2023-08-24T00:26:23;34.68;32.72;40.15;;
69611;Laerm;56817;52.302;4.844;2023-08-24T00:26:33;37.60;33.74;43.20;;
69611;Laerm;56817;52.302;4.844;2023-08-24T00:26:44;35.93;33.18;43.84;;
69611;Laerm;56817;52.302;4.844;2023-08-24T00:26:55;39.37;33.14;46.49;;
69611;Laerm;56817;52.302;4.844;2023-08-24T00:27:06;37.41;35.04;41.14;;
69611;Laerm;56817;52.302;4.844;2023-08-24T00:27:16;36.33;33.91;38.04;;
69611;Laerm;56817;52.302;4.844;2023-08-24T00:27:26;35.69;33.71;37.53;;
69611;Laerm;56817;52.302;4.844;2023-08-24T00:27:36;36.57;33.06;41.56;;
69611;Laerm;56817;52.302;4.844;2023-08-24T00:27:47;34.92;33.35;36.77;;
69611;Laerm;56817;52.302;4.844;2023-08-24T00:27:57;34.64;32.48;36.48;;
69611;Laerm;56817;52.302;4.844;2023-08-24T00:28:07;36.38;33.31;43.95;;
69611;Laerm;56817;52.302;4.844;2023-08-24T00:28:18;35.94;33.51;40.22;;
69611;Laerm;56817;52.302;4.844;2023-08-24T00:28:28;37.58;33.93;43.25;;
69611;Laerm;56817;52.302;4.844;2023-08-24T00:28:38;37.01;33.78;42.88;;
69611;Laerm;56817;52.302;4.844;2023-08-24T00:28:48;37.46;34.89;40.55;;
69611;Laerm;56817;52.302;4.844;2023-08-24T00:28:59;42.07;37.02;47.76;;
69611;Laerm;56817;52.302;4.844;2023-08-24T00:29:09;37.60;35.09;40.22;;
69611;Laerm;56817;52.302;4.844;2023-08-24T00:29:19;37.74;35.28;40.52;;
69611;Laerm;56817;52.302;4.844;2023-08-24T00:29:31;37.99;34.21;44.31;;
69611;Laerm;56817;52.302;4.844;2023-08-24T00:29:42;36.05;33.86;45.16;;
69611;Laerm;56817;52.302;4.844;2023-08-24T00:29:52;36.03;33.48;40.34;;
69611;Laerm;56817;52.302;4.844;2023-08-24T00:30:03;36.26;33.46;41.62;;
69611;Laerm;56817;52.302;4.844;2023-08-24T00:30:16;37.97;33.57;48.11;;
69611;Laerm;56817;52.302;4.844;2023-08-24T00:30:27;39.27;33.71;46.83;;
69611;Laerm;56817;52.302;4.844;2023-08-24T00:30:37;39.08;36.42;44.77;;
69611;Laerm;56817;52.302;4.844;2023-08-24T00:30:47;38.64;35.80;42.51;;
69611;Laerm;56817;52.302;4.844;2023-08-24T00:30:58;42.16;38.83;45.38;;
69611;Laerm;56817;52.302;4.844;2023-08-24T00:31:08;39.62;36.44;44.32;;
69611;Laerm;56817;52.302;4.844;2023-08-24T00:31:18;37.49;35.11;40.63;;
69611;Laerm;56817;52.302;4.844;2023-08-24T00:31:28;36.36;34.28;43.33;;
69611;Laerm;56817;52.302;4.844;2023-08-24T00:31:39;38.34;34.86;47.78;;
69611;Laerm;56817;52.302;4.844;2023-08-24T00:31:49;37.08;34.71;41.50;;
69611;Laerm;56817;52.302;4.844;2023-08-24T00:31:59;36.92;34.34;41.97;;
69611;Laerm;56817;52.302;4.844;2023-08-24T00:32:09;38.72;35.22;46.60;;
69611;Laerm;56817;52.302;4.844;2023-08-24T00:32:20;43.06;37.13;47.38;;
69611;Laerm;56817;52.302;4.844;2023-08-24T00:32:30;45.28;39.23;48.97;;
69611;Laerm;56817;52.302;4.844;2023-08-24T00:32:43;40.02;36.86;46.37;;
69611;Laerm;56817;52.302;4.844;2023-08-24T00:32:54;39.69;36.17;45.50;;
69611;Laerm;56817;52.302;4.844;2023-08-24T00:33:04;38.86;36.09;44.17;;
69611;Laerm;56817;52.302;4.844;2023-08-24T00:33:14;38.98;35.31;42.52;;
69611;Laerm;56817;52.302;4.844;2023-08-24T00:33:25;38.86;34.80;43.35;;
69611;Laerm;56817;52.302;4.844;2023-08-24T00:33:35;40.26;36.02;49.05;;
69611;Laerm;56817;52.302;4.844;2023-08-24T00:33:45;39.97;35.99;44.57;;
69611;Laerm;56817;52.302;4.844;2023-08-24T00:33:56;37.48;35.27;40.93;;
69611;Laerm;56817;52.302;4.844;2023-08-24T00:34:06;38.36;35.41;44.46;;
69611;Laerm;56817;52.302;4.844;2023-08-24T00:34:16;39.21;36.01;42.57;;
69611;Laerm;56817;52.302;4.844;2023-08-24T00:34:26;38.09;35.18;43.85;;
69611;Laerm;56817;52.302;4.844;2023-08-24T00:34:37;37.52;34.40;41.50;;
69611;Laerm;56817;52.302;4.844;2023-08-24T00:34:47;37.08;34.49;39.21;;
69611;Laerm;56817;52.302;4.844;2023-08-24T00:34:57;38.08;33.47;45.33;;
69611;Laerm;56817;52.302;4.844;2023-08-24T00:35:08;36.08;34.04;40.53;;
69611;Laerm;56817;52.302;4.844;2023-08-24T00:35:20;39.83;35.40;45.08;;
69611;Laerm;56817;52.302;4.844;2023-08-24T00:35:30;38.73;35.11;43.37;;
69611;Laerm;56817;52.302;4.844;2023-08-24T00:35:40;36.98;34.53;43.58;;
69611;Laerm;56817;52.302;4.844;2023-08-24T00:35:51;37.01;34.28;42.49;;
69611;Laerm;56817;52.302;4.844;2023-08-24T00:36:01;36.69;34.69;43.01;;
69611;Laerm;56817;52.302;4.844;2023-08-24T00:36:12;38.57;34.98;48.19;;
69611;Laerm;56817;52.302;4.844;2023-08-24T00:36:22;39.15;35.88;43.94;;
69611;Laerm;56817;52.302;4.844;2023-08-24T00:36:33;37.69;34.74;43.92;;
69611;Laerm;56817;52.302;4.844;2023-08-24T00:36:43;41.47;36.87;46.67;;
69611;Laerm;56817;52.302;4.844;2023-08-24T00:36:54;38.93;35.28;44.87;;
69611;Laerm;56817;52.302;4.844;2023-08-24T00:37:04;37.74;34.57;43.36;;
69611;Laerm;56817;52.302;4.844;2023-08-24T00:37:14;35.64;33.88;37.62;;
69611;Laerm;56817;52.302;4.844;2023-08-24T00:37:24;37.35;33.71;42.98;;
69611;Laerm;56817;52.302;4.844;2023-08-24T00:37:35;37.79;34.58;42.25;;
69611;Laerm;56817;52.302;4.844;2023-08-24T00:37:46;36.57;34.18;45.97;;
69611;Laerm;56817;52.302;4.844;2023-08-24T00:37:56;36.85;33.32;41.80;;
69611;Laerm;56817;52.302;4.844;2023-08-24T00:38:06;37.12;34.11;41.06;;
69611;Laerm;56817;52.302;4.844;2023-08-24T00:38:16;38.90;33.53;46.17;;
69611;Laerm;56817;52.302;4.844;2023-08-24T00:38:27;36.83;32.93;46.40;;
69611;Laerm;56817;52.302;4.844;2023-08-24T00:38:37;39.39;35.46;43.31;;
69611;Laerm;56817;52.302;4.844;2023-08-24T00:38:47;37.23;34.77;41.69;;
69611;Laerm;56817;52.302;4.844;2023-08-24T00:39:01;41.01;36.01;47.28;;
69611;Laerm;56817;52.302;4.844;2023-08-24T00:39:11;42.34;38.74;45.36;;
69611;Laerm;56817;52.302;4.844;2023-08-24T00:39:22;37.80;34.42;41.43;;
69611;Laerm;56817;52.302;4.844;2023-08-24T00:39:32;37.52;35.26;40.26;;
69611;Laerm;56817;52.302;4.844;2023-08-24T00:39:42;37.65;33.98;46.20;;
69611;Laerm;56817;52.302;4.844;2023-08-24T00:39:53;39.24;35.82;46.09;;
69611;Laerm;56817;52.302;4.844;2023-08-24T00:40:04;36.70;34.79;39.52;;
69611;Laerm;56817;52.302;4.844;2023-08-24T00:40:17;37.93;34.89;40.72;;
69611;Laerm;56817;52.302;4.844;2023-08-24T00:40:28;36.46;34.76;38.44;;
69611;Laerm;56817;52.302;4.844;2023-08-24T00:40:40;35.09;32.84;37.75;;
69611;Laerm;56817;52.302;4.844;2023-08-24T00:40:51;34.80;32.45;37.66;;
69611;Laerm;56817;52.302;4.844;2023-08-24T00:41:03;35.56;32.44;41.70;;
69611;Laerm;56817;52.302;4.844;2023-08-24T00:41:15;37.09;34.16;41.05;;
69611;Laerm;56817;52.302;4.844;2023-08-24T00:41:25;37.65;35.43;41.35;;
69611;Laerm;56817;52.302;4.844;2023-08-24T00:41:35;38.96;35.81;42.00;;
69611;Laerm;56817;52.302;4.844;2023-08-24T00:41:45;37.29;34.33;40.12;;
69611;Laerm;56817;52.302;4.844;2023-08-24T00:41:56;36.34;34.12;39.46;;
69611;Laerm;56817;52.302;4.844;2023-08-24T00:42:06;35.81;33.54;38.25;;
69611;Laerm;56817;52.302;4.844;2023-08-24T00:42:17;36.57;34.09;40.27;;
69611;Laerm;56817;52.302;4.844;2023-08-24T00:42:27;36.48;34.41;39.18;;
69611;Laerm;56817;52.302;4.844;2023-08-24T00:42:40;37.18;34.21;43.15;;
69611;Laerm;56817;52.302;4.844;2023-08-24T00:42:51;41.57;38.33;45.30;;
69611;Laerm;56817;52.302;4.844;2023-08-24T00:43:01;39.60;36.20;43.50;;
69611;Laerm;56817;52.302;4.844;2023-08-24T00:43:11;36.43;33.63;40.12;;
69611;Laerm;56817;52.302;4.844;2023-08-24T00:43:22;34.72;32.97;36.65;;
69611;Laerm;56817;52.302;4.844;2023-08-24T00:43:34;35.82;33.00;38.55;;
69611;Laerm;56817;52.302;4.844;2023-08-24T00:43:46;36.93;34.98;39.16;;
69611;Laerm;56817;52.302;4.844;2023-08-24T00:43:56;35.96;33.41;41.92;;
69611;Laerm;56817;52.302;4.844;2023-08-24T00:44:07;35.80;33.50;38.14;;
69611;Laerm;56817;52.302;4.844;2023-08-24T00:44:18;35.52;33.18;38.86;;
69611;Laerm;56817;52.302;4.844;2023-08-24T00:44:28;37.65;33.42;43.10;;
69611;Laerm;56817;52.302;4.844;2023-08-24T00:44:38;39.21;33.77;46.60;;
69611;Laerm;56817;52.302;4.844;2023-08-24T00:44:49;35.38;33.57;37.29;;
69611;Laerm;56817;52.302;4.844;2023-08-24T00:44:59;36.83;32.31;42.45;;
69611;Laerm;56817;52.302;4.844;2023-08-24T00:45:10;36.00;33.67;39.72;;
69611;Laerm;56817;52.302;4.844;2023-08-24T00:45:21;38.84;36.37;41.05;;
69611;Laerm;56817;52.302;4.844;2023-08-24T00:45:31;38.49;35.76;40.57;;
69611;Laerm;56817;52.302;4.844;2023-08-24T00:45:43;36.60;33.65;39.77;;
69611;Laerm;56817;52.302;4.844;2023-08-24T00:45:56;35.35;33.60;37.60;;
69611;Laerm;56817;52.302;4.844;2023-08-24T00:46:09;35.85;33.64;38.34;;
69611;Laerm;56817;52.302;4.844;2023-08-24T00:46:19;34.61;32.93;38.03;;
69611;Laerm;56817;52.302;4.844;2023-08-24T00:46:29;40.01;33.61;48.18;;
69611;Laerm;56817;52.302;4.844;2023-08-24T00:46:40;39.03;33.64;47.02;;
69611;Laerm;56817;52.302;4.844;2023-08-24T00:46:51;35.10;33.39;37.00;;
69611;Laerm;56817;52.302;4.844;2023-08-24T00:47:02;34.85;32.88;37.07;;
69611;Laerm;56817;52.302;4.844;2023-08-24T00:47:12;34.11;32.33;36.19;;
69611;Laerm;56817;52.302;4.844;2023-08-24T00:47:22;34.99;32.53;39.02;;
69611;Laerm;56817;52.302;4.844;2023-08-24T00:47:33;37.01;33.68;42.64;;
69611;Laerm;56817;52.302;4.844;2023-08-24T00:47:45;35.59;33.53;39.61;;
69611;Laerm;56817;52.302;4.844;2023-08-24T00:47:56;35.13;33.30;39.06;;
69611;Laerm;56817;52.302;4.844;2023-08-24T00:48:06;34.16;32.41;36.30;;
69611;Laerm;56817;52.302;4.844;2023-08-24T00:48:18;35.20;32.45;39.01;;
69611;Laerm;56817;52.302;4.844;2023-08-24T00:48:28;39.60;34.78;45.32;;
69611;Laerm;56817;52.302;4.844;2023-08-24T00:48:39;41.73;36.70;48.01;;
69611;Laerm;56817;52.302;4.844;2023-08-24T00:48:49;40.90;36.35;46.27;;
69611;Laerm;56817;52.302;4.844;2023-08-24T00:49:01;40.89;36.45;47.57;;
69611;Laerm;56817;52.302;4.844;2023-08-24T00:49:13;40.26;36.09;45.97;;
69611;Laerm;56817;52.302;4.844;2023-08-24T00:49:23;41.07;37.29;45.87;;
69611;Laerm;56817;52.302;4.844;2023-08-24T00:49:34;38.98;36.74;46.02;;
69611;Laerm;56817;52.302;4.844;2023-08-24T00:49:44;36.62;33.66;39.42;;
69611;Laerm;56817;52.302;4.844;2023-08-24T00:49:54;36.56;34.22;39.23;;
69611;Laerm;56817;52.302;4.844;2023-08-24T00:50:05;36.62;34.19;39.58;;
69611;Laerm;56817;52.302;4.844;2023-08-24T00:50:16;36.59;34.57;39.03;;
69611;Laerm;56817;52.302;4.844;2023-08-24T00:50:27;35.99;34.38;37.84;;
69611;Laerm;56817;52.302;4.844;2023-08-24T00:50:37;35.81;34.07;42.23;;
69611;Laerm;56817;52.302;4.844;2023-08-24T00:50:48;35.43;32.82;38.88;;
69611;Laerm;56817;52.302;4.844;2023-08-24T00:50:59;34.44;32.72;37.39;;
69611;Laerm;56817;52.302;4.844;2023-08-24T00:51:10;34.22;32.82;36.48;;
69611;Laerm;56817;52.302;4.844;2023-08-24T00:51:20;35.12;32.82;37.89;;
69611;Laerm;56817;52.302;4.844;2023-08-24T00:51:31;34.60;32.32;36.88;;
69611;Laerm;56817;52.302;4.844;2023-08-24T00:51:41;35.03;33.27;37.98;;
69611;Laerm;56817;52.302;4.844;2023-08-24T00:51:51;35.42;32.90;38.45;;
69611;Laerm;56817;52.302;4.844;2023-08-24T00:52:02;35.52;33.07;38.00;;
69611;Laerm;56817;52.302;4.844;2023-08-24T00:52:12;35.39;33.71;37.90;;
69611;Laerm;56817;52.302;4.844;2023-08-24T00:52:24;35.79;33.11;38.39;;
69611;Laerm;56817;52.302;4.844;2023-08-24T00:52:38;34.55;32.91;37.05;;
69611;Laerm;56817;52.302;4.844;2023-08-24T00:52:49;34.55;32.80;36.28;;
69611;Laerm;56817;52.302;4.844;2023-08-24T00:53:00;36.77;34.09;40.91;;
69611;Laerm;56817;52.302;4.844;2023-08-24T00:53:10;36.82;34.81;40.74;;
69611;Laerm;56817;52.302;4.844;2023-08-24T00:53:21;38.10;35.14;42.47;;
69611;Laerm;56817;52.302;4.844;2023-08-24T00:53:33;37.00;34.37;40.12;;
69611;Laerm;56817;52.302;4.844;2023-08-24T00:53:44;37.00;34.96;39.60;;
69611;Laerm;56817;52.302;4.844;2023-08-24T00:53:55;37.30;35.03;41.37;;
69611;Laerm;56817;52.302;4.844;2023-08-24T00:54:07;36.31;34.18;39.76;;
69611;Laerm;56817;52.302;4.844;2023-08-24T00:54:18;35.61;33.06;42.05;;
69611;Laerm;56817;52.302;4.844;2023-08-24T00:54:28;35.70;32.38;44.35;;
69611;Laerm;56817;52.302;4.844;2023-08-24T00:54:38;35.71;32.15;42.62;;
69611;Laerm;56817;52.302;4.844;2023-08-24T00:54:49;35.47;33.30;38.37;;
69611;Laerm;56817;52.302;4.844;2023-08-24T00:54:59;34.47;32.10;36.90;;
69611;Laerm;56817;52.302;4.844;2023-08-24T00:55:11;35.62;33.01;41.40;;
69611;Laerm;56817;52.302;4.844;2023-08-24T00:55:21;36.96;33.89;40.29;;
69611;Laerm;56817;52.302;4.844;2023-08-24T00:55:31;36.58;33.39;40.07;;
69611;Laerm;56817;52.302;4.844;2023-08-24T00:55:42;37.71;34.81;45.78;;
69611;Laerm;56817;52.302;4.844;2023-08-24T00:55:53;40.54;36.84;46.95;;
69611;Laerm;56817;52.302;4.844;2023-08-24T00:56:03;38.18;34.85;48.68;;
69611;Laerm;56817;52.302;4.844;2023-08-24T00:56:13;38.55;33.97;44.83;;
69611;Laerm;56817;52.302;4.844;2023-08-24T00:56:24;36.53;33.80;40.35;;
69611;Laerm;56817;52.302;4.844;2023-08-24T00:56:34;35.58;33.30;39.86;;
69611;Laerm;56817;52.302;4.844;2023-08-24T00:56:45;37.29;33.03;41.08;;
69611;Laerm;56817;52.302;4.844;2023-08-24T00:56:55;36.26;33.55;43.75;;
69611;Laerm;56817;52.302;4.844;2023-08-24T00:57:06;35.68;33.31;40.08;;
69611;Laerm;56817;52.302;4.844;2023-08-24T00:57:16;36.94;34.04;41.56;;
69611;Laerm;56817;52.302;4.844;2023-08-24T00:57:27;39.41;35.89;45.68;;
69611;Laerm;56817;52.302;4.844;2023-08-24T00:57:38;37.35;34.70;40.08;;
69611;Laerm;56817;52.302;4.844;2023-08-24T00:57:49;35.73;33.47;40.34;;
69611;Laerm;56817;52.302;4.844;2023-08-24T00:58:00;35.57;33.56;38.85;;
69611;Laerm;56817;52.302;4.844;2023-08-24T00:58:13;36.31;33.45;41.81;;
69611;Laerm;56817;52.302;4.844;2023-08-24T00:58:23;34.97;32.89;39.20;;
69611;Laerm;56817;52.302;4.844;2023-08-24T00:58:34;34.71;32.56;37.84;;
69611;Laerm;56817;52.302;4.844;2023-08-24T00:58:44;37.63;33.35;43.21;;
69611;Laerm;56817;52.302;4.844;2023-08-24T00:58:56;37.67;35.22;39.95;;
69611;Laerm;56817;52.302;4.844;2023-08-24T00:59:07;37.95;35.18;42.71;;
69611;Laerm;56817;52.302;4.844;2023-08-24T00:59:17;38.06;35.44;41.17;;
69611;Laerm;56817;52.302;4.844;2023-08-24T00:59:27;37.80;35.27;40.38;;
69611;Laerm;56817;52.302;4.844;2023-08-24T00:59:38;40.74;35.13;48.45;;
69611;Laerm;56817;52.302;4.844;2023-08-24T00:59:49;42.89;37.38;50.37;;